Time;durP1;ratioP1;P1;durP2;ratioP2;P2;SDS_P1;SDS_P2;PMS_P1;PMS_P2;Temp;Humidity;BMP_temperature;BMP_pressure;BME280_temperature;BME280_humidity;BME280_pressure;Samples;Min_cycle;Max_cycle;Signal;HPM_P1;HPM_P2
2024/03/10 00:00:08;;;;;;;4.37;2.70;;;;;;;;;;4967672;28;20215;-86
2024/03/10 00:03:12;;;;;;;5.43;2.30;;;;;;;;;;4970640;28;20207;-86
2024/03/10 00:06:17;;;;;;;3.90;2.30;;;;;;;;;;4958107;29;20637;-87
2024/03/10 00:09:21;;;;;;;2.80;2.07;;;;;;;;;;4958240;29;20223;-87
2024/03/10 00:12:26;;;;;;;2.80;2.07;;;;;;;;;;4968798;28;20180;-86
2024/03/10 00:15:30;;;;;;;3.13;2.27;;;;;;;;;;4958698;29;20183;-87
2024/03/10 00:18:35;;;;;;;2.93;2.30;;;;;;;;;;4968937;28;20518;-87
2024/03/10 00:21:39;;;;;;;3.73;2.30;;;;;;;;;;4957471;29;20865;-85
2024/03/10 00:24:43;;;;;;;4.53;2.10;;;;;;;;;;4968618;28;20184;-85
2024/03/10 00:27:49;;;;;;;3.33;2.10;;;;;;;;;;4969523;28;20191;-85
2024/03/10 00:30:54;;;;;;;6.03;2.33;;;;;;;;;;4968878;28;20215;-85
2024/03/10 00:33:58;;;;;;;2.17;1.67;;;;;;;;;;4958586;29;20187;-85
2024/03/10 00:37:05;;;;;;;3.20;1.97;;;;;;;;;;4959376;29;20187;-84
2024/03/10 00:40:09;;;;;;;3.20;1.90;;;;;;;;;;4968907;28;20222;-85
2024/03/10 00:43:13;;;;;;;2.90;1.83;;;;;;;;;;4969086;28;20211;-85
2024/03/10 00:46:17;;;;;;;2.63;1.97;;;;;;;;;;4969076;28;20187;-85
2024/03/10 00:49:22;;;;;;;2.47;1.63;;;;;;;;;;4957769;29;20227;-85
2024/03/10 00:52:26;;;;;;;3.73;1.73;;;;;;;;;;4958847;29;20183;-85
2024/03/10 00:55:30;;;;;;;2.13;1.63;;;;;;;;;;4958981;29;20192;-84
2024/03/10 00:58:35;;;;;;;2.37;1.80;;;;;;;;;;4969273;28;20188;-85
2024/03/10 01:01:39;;;;;;;2.67;1.90;;;;;;;;;;4958640;29;20548;-85
2024/03/10 01:04:44;;;;;;;2.67;1.70;;;;;;;;;;4969106;28;20176;-85
2024/03/10 01:07:48;;;;;;;3.33;1.93;;;;;;;;;;4958347;29;20184;-85
2024/03/10 01:10:52;;;;;;;3.43;1.87;;;;;;;;;;4957484;29;20219;-85
2024/03/10 01:13:56;;;;;;;2.63;1.80;;;;;;;;;;4968533;28;20175;-85
2024/03/10 01:17:04;;;;;;;2.90;1.73;;;;;;;;;;4958055;29;20184;-85
2024/03/10 01:20:08;;;;;;;3.07;1.77;;;;;;;;;;4958539;29;20227;-85
2024/03/10 01:23:12;;;;;;;1.90;1.70;;;;;;;;;;4968100;28;20211;-85
2024/03/10 01:26:17;;;;;;;3.47;1.60;;;;;;;;;;4968317;28;20187;-85
2024/03/10 01:29:22;;;;;;;2.10;1.53;;;;;;;;;;4957307;29;20223;-85
2024/03/10 01:32:26;;;;;;;1.87;1.47;;;;;;;;;;4957292;29;20526;-85
2024/03/10 01:35:30;;;;;;;1.90;1.50;;;;;;;;;;4956182;28;20188;-84
2024/03/10 01:38:34;;;;;;;3.47;1.63;;;;;;;;;;4967378;28;20184;-85
2024/03/10 01:41:38;;;;;;;2.20;1.60;;;;;;;;;;4945468;29;20187;-85
2024/03/10 01:44:42;;;;;;;2.70;1.60;;;;;;;;;;4957664;29;20176;-84
2024/03/10 01:47:48;;;;;;;2.47;1.73;;;;;;;;;;4967797;28;20188;-84
2024/03/10 01:50:52;;;;;;;1.87;1.60;;;;;;;;;;4956279;29;20239;-84
2024/03/10 01:53:57;;;;;;;1.77;1.50;;;;;;;;;;4957095;29;20184;-85
2024/03/10 01:57:03;;;;;;;3.00;1.60;;;;;;;;;;4956767;29;20203;-85
2024/03/10 02:00:10;;;;;;;2.50;1.50;;;;;;;;;;4967567;28;20227;-85
2024/03/10 02:03:17;;;;;;;1.67;1.37;;;;;;;;;;4967590;28;20211;-85
2024/03/10 02:06:21;;;;;;;1.57;1.30;;;;;;;;;;4956852;29;20179;-85
2024/03/10 02:09:26;;;;;;;2.23;1.70;;;;;;;;;;4956678;29;20215;-85
2024/03/10 02:12:30;;;;;;;2.40;1.60;;;;;;;;;;4956461;29;20184;-85
2024/03/10 02:15:34;;;;;;;2.03;1.47;;;;;;;;;;4956176;29;20187;-85
2024/03/10 02:18:38;;;;;;;1.50;1.27;;;;;;;;;;4945455;29;20195;-85
2024/03/10 02:21:43;;;;;;;1.67;1.30;;;;;;;;;;4957414;29;20191;-84
2024/03/10 02:24:49;;;;;;;1.50;1.30;;;;;;;;;;4967348;28;20645;-85
2024/03/10 02:27:54;;;;;;;1.60;1.40;;;;;;;;;;4956312;29;20191;-84
2024/03/10 02:31:08;;;;;;;2.17;1.60;;;;;;;;;;4967176;28;20218;-85
2024/03/10 02:47:43;;;;;;;1.37;1.20;;;;;;;;;;4955921;28;20184;-85
2024/03/10 02:50:49;;;;;;;3.37;1.50;;;;;;;;;;4967312;28;20231;-85
2024/03/10 02:53:53;;;;;;;2.77;1.70;;;;;;;;;;4967699;28;20180;-85
2024/03/10 02:56:58;;;;;;;5.00;1.33;;;;;;;;;;4956026;29;20549;-85
2024/03/10 03:00:02;;;;;;;1.63;1.27;;;;;;;;;;4967173;28;20222;-84
2024/03/10 03:03:08;;;;;;;2.13;1.37;;;;;;;;;;4956264;29;20212;-85
2024/03/10 03:06:12;;;;;;;1.63;1.47;;;;;;;;;;4956123;29;20629;-85
2024/03/10 03:09:20;;;;;;;1.30;1.10;;;;;;;;;;4944435;29;20220;-85
2024/03/10 03:12:23;;;;;;;1.70;1.30;;;;;;;;;;4966875;28;20645;-84
2024/03/10 03:15:29;;;;;;;2.43;1.60;;;;;;;;;;4956149;29;20629;-85
2024/03/10 03:18:33;;;;;;;1.80;1.40;;;;;;;;;;4956201;29;20191;-85
2024/03/10 03:21:39;;;;;;;2.87;1.40;;;;;;;;;;4956029;29;20533;-85
2024/03/10 03:24:43;;;;;;;4.20;1.50;;;;;;;;;;4955848;29;20211;-85
2024/03/10 03:27:50;;;;;;;3.70;1.53;;;;;;;;;;4956592;29;20633;-85
2024/03/10 03:30:55;;;;;;;1.80;1.40;;;;;;;;;;4956351;29;20696;-84
2024/03/10 03:33:59;;;;;;;2.87;1.43;;;;;;;;;;4966051;28;20195;-84
2024/03/10 03:37:03;;;;;;;1.73;1.20;;;;;;;;;;4955103;29;20637;-84
2024/03/10 03:40:07;;;;;;;1.77;1.50;;;;;;;;;;4954729;29;20223;-84
2024/03/10 03:43:11;;;;;;;5.03;1.50;;;;;;;;;;4955974;29;20215;-84
2024/03/10 03:46:17;;;;;;;3.30;1.33;;;;;;;;;;4966038;28;20633;-84
2024/03/10 03:49:21;;;;;;;1.77;1.47;;;;;;;;;;4955333;29;20230;-84
2024/03/10 03:52:25;;;;;;;2.30;1.63;;;;;;;;;;5042349;23;20237;-87
2024/03/10 03:55:31;;;;;;;2.80;1.53;;;;;;;;;;5004792;28;20179;-88
2024/03/10 03:58:35;;;;;;;1.87;1.50;;;;;;;;;;5004678;28;20182;-87
2024/03/10 04:01:39;;;;;;;2.73;1.33;;;;;;;;;;5007506;28;20226;-87
2024/03/10 04:04:44;;;;;;;1.77;1.33;;;;;;;;;;4984177;28;20214;-87
2024/03/10 04:07:48;;;;;;;2.63;1.40;;;;;;;;;;5017912;28;20187;-87
2024/03/10 04:10:52;;;;;;;1.30;1.20;;;;;;;;;;4984277;28;20178;-87
2024/03/10 04:13:57;;;;;;;1.80;1.40;;;;;;;;;;4995969;28;20183;-87
2024/03/10 04:17:01;;;;;;;1.63;1.50;;;;;;;;;;5005697;28;20186;-87
2024/03/10 04:20:12;;;;;;;1.53;1.33;;;;;;;;;;4995234;28;20182;-87
2024/03/10 04:23:16;;;;;;;1.93;1.40;;;;;;;;;;5006348;28;20221;-87
2024/03/10 04:26:22;;;;;;;3.33;1.70;;;;;;;;;;5006999;28;20186;-87
2024/03/10 04:29:26;;;;;;;1.70;1.43;;;;;;;;;;4982262;28;20182;-87
2024/03/10 04:32:31;;;;;;;3.03;1.50;;;;;;;;;;5006578;28;20222;-87
2024/03/10 04:35:38;;;;;;;2.07;1.40;;;;;;;;;;5006674;28;20175;-87
2024/03/10 04:38:43;;;;;;;2.10;1.57;;;;;;;;;;5017632;28;20183;-86
2024/03/10 04:41:47;;;;;;;2.03;1.60;;;;;;;;;;5016521;28;20221;-88
2024/03/10 04:44:52;;;;;;;5.77;1.90;;;;;;;;;;5006125;28;20206;-88
2024/03/10 04:47:56;;;;;;;2.20;1.70;;;;;;;;;;5006822;28;20182;-87
2024/03/10 04:51:00;;;;;;;2.43;1.53;;;;;;;;;;4994544;28;20186;-87
2024/03/10 04:54:05;;;;;;;1.83;1.67;;;;;;;;;;5019601;28;20663;-87
2024/03/10 04:57:09;;;;;;;1.70;1.50;;;;;;;;;;5006565;28;20182;-87
2024/03/10 05:00:16;;;;;;;1.63;1.30;;;;;;;;;;4985350;28;20178;-86
2024/03/10 05:03:20;;;;;;;3.63;1.70;;;;;;;;;;5018533;28;20228;-86
2024/03/10 05:06:25;;;;;;;2.30;1.63;;;;;;;;;;4984388;28;20191;-87
2024/03/10 05:09:30;;;;;;;1.43;1.23;;;;;;;;;;5006162;28;20174;-86
2024/03/10 05:12:35;;;;;;;1.87;1.30;;;;;;;;;;4984639;28;20225;-86
2024/03/10 05:15:40;;;;;;;1.47;1.10;;;;;;;;;;5017351;28;20182;-87
2024/03/10 05:18:44;;;;;;;2.30;1.70;;;;;;;;;;5006482;28;20186;-87
2024/03/10 05:21:49;;;;;;;1.77;1.40;;;;;;;;;;5005208;28;20225;-87
2024/03/10 05:24:54;;;;;;;1.93;1.33;;;;;;;;;;4993990;28;20203;-86
2024/03/10 05:27:59;;;;;;;1.80;1.40;;;;;;;;;;5004953;28;20179;-86
2024/03/10 05:31:03;;;;;;;3.13;1.67;;;;;;;;;;4993728;28;20183;-87
2024/03/10 05:34:08;;;;;;;2.20;1.40;;;;;;;;;;5004719;28;20178;-86
2024/03/10 05:37:13;;;;;;;1.43;1.30;;;;;;;;;;5005940;28;20182;-86
2024/03/10 05:40:18;;;;;;;2.13;1.50;;;;;;;;;;5006025;28;20178;-87
2024/03/10 05:43:22;;;;;;;3.57;1.40;;;;;;;;;;4983242;28;20221;-87
2024/03/10 05:46:27;;;;;;;2.97;1.60;;;;;;;;;;5005335;28;20186;-87
2024/03/10 05:49:31;;;;;;;1.63;1.30;;;;;;;;;;5007491;28;20182;-87
2024/03/10 05:52:35;;;;;;;2.90;1.67;;;;;;;;;;4983720;28;20237;-85
2024/03/10 05:55:40;;;;;;;2.20;1.50;;;;;;;;;;5005443;28;20538;-87
2024/03/10 05:58:45;;;;;;;2.90;1.83;;;;;;;;;;5017159;28;20663;-87
2024/03/10 06:01:49;;;;;;;2.10;1.50;;;;;;;;;;5003926;28;20605;-86
2024/03/10 06:04:54;;;;;;;2.03;1.67;;;;;;;;;;4979952;28;20214;-87
2024/03/10 06:07:59;;;;;;;1.40;1.20;;;;;;;;;;4990159;28;20554;-86
2024/03/10 06:11:03;;;;;;;1.77;1.20;;;;;;;;;;4990014;28;20658;-86
2024/03/10 06:14:07;;;;;;;1.93;1.47;;;;;;;;;;5003794;28;20630;-86
2024/03/10 06:17:13;;;;;;;2.63;2.03;;;;;;;;;;5018842;28;20214;-87
2024/03/10 06:27:07;;;;;;;2.07;1.50;;;;;;;;;;5012640;28;20190;-87
2024/03/10 06:30:11;;;;;;;2.80;1.40;;;;;;;;;;4989601;28;20174;-87
2024/03/10 06:33:16;;;;;;;1.60;1.27;;;;;;;;;;5000353;28;20209;-86
2024/03/10 06:36:20;;;;;;;1.77;1.30;;;;;;;;;;4998667;28;20178;-86
2024/03/10 06:39:24;;;;;;;2.00;1.70;;;;;;;;;;5008520;28;20174;-86
2024/03/10 06:42:29;;;;;;;1.73;1.30;;;;;;;;;;4997246;28;20217;-84
2024/03/10 06:45:34;;;;;;;2.33;1.50;;;;;;;;;;4974885;28;20578;-87
2024/03/10 06:48:38;;;;;;;1.50;1.40;;;;;;;;;;4985999;28;20551;-86
2024/03/10 06:51:44;;;;;;;1.50;1.40;;;;;;;;;;5007785;28;20218;-86
2024/03/10 06:54:48;;;;;;;2.20;1.70;;;;;;;;;;4986268;28;20179;-86
2024/03/10 06:57:53;;;;;;;2.67;1.70;;;;;;;;;;4996346;28;20178;-86
2024/03/10 07:00:58;;;;;;;2.10;1.60;;;;;;;;;;4984357;28;20175;-86
2024/03/10 07:04:06;;;;;;;2.93;2.10;;;;;;;;;;4995660;28;20206;-86
2024/03/10 07:07:10;;;;;;;3.33;2.10;;;;;;;;;;4984808;28;20186;-86
2024/03/10 07:10:15;;;;;;;5.97;1.70;;;;;;;;;;4995584;28;20628;-86
2024/03/10 07:13:20;;;;;;;2.40;1.40;;;;;;;;;;4996891;28;20222;-86
2024/03/10 07:17:01;;;;;;;2.97;1.80;;;;;;;;;;4972933;28;20178;-88
2024/03/10 07:20:08;;;;;;;1.87;1.53;;;;;;;;;;4995210;28;20186;-87
2024/03/10 07:23:13;;;;;;;2.47;1.80;;;;;;;;;;4984778;28;20217;-85
2024/03/10 07:26:17;;;;;;;2.60;1.70;;;;;;;;;;5005805;28;20188;-88
2024/03/10 07:29:21;;;;;;;2.17;1.50;;;;;;;;;;4972254;28;20174;-88
2024/03/10 07:32:26;;;;;;;2.13;1.73;;;;;;;;;;4982662;28;20737;-87
2024/03/10 07:35:30;;;;;;;2.30;1.77;;;;;;;;;;4987144;28;20678;-87
2024/03/10 07:38:34;;;;;;;2.50;1.95;;;;;;;;;;4977777;28;20682;-88
2024/03/10 07:41:38;;;;;;;2.10;1.65;;;;;;;;;;4987348;28;20686;-86
2024/03/10 07:44:42;;;;;;;2.10;1.80;;;;;;;;;;5003838;28;20210;-88
2024/03/10 07:47:47;;;;;;;3.85;1.83;;;;;;;;;;4978950;28;20689;-88
2024/03/10 07:50:51;;;;;;;3.80;1.50;;;;;;;;;;5002575;28;20186;-89
2024/03/10 07:53:58;;;;;;;2.80;1.57;;;;;;;;;;4981988;28;20171;-91
2024/03/10 07:57:02;;;;;;;3.00;1.60;;;;;;;;;;4980964;28;20182;-90
2024/03/10 08:00:11;;;;;;;2.63;1.40;;;;;;;;;;4991701;28;20182;-91
2024/03/10 08:03:16;;;;;;;2.27;1.50;;;;;;;;;;4991230;28;20214;-90
2024/03/10 08:06:21;;;;;;;2.13;1.47;;;;;;;;;;4978011;28;20179;-88
2024/03/10 08:09:26;;;;;;;1.53;1.30;;;;;;;;;;4987662;28;20182;-89
2024/03/10 08:12:30;;;;;;;3.80;1.30;;;;;;;;;;4997445;28;20218;-90
2024/03/10 08:15:36;;;;;;;2.33;1.70;;;;;;;;;;4986287;28;20182;-91
2024/03/10 08:18:41;;;;;;;2.27;1.70;;;;;;;;;;4986237;28;20186;-91
2024/03/10 08:21:45;;;;;;;1.73;1.43;;;;;;;;;;4974974;28;20225;-89
2024/03/10 08:24:51;;;;;;;2.13;1.60;;;;;;;;;;4985926;28;20210;-90
2024/03/10 08:27:56;;;;;;;1.63;1.27;;;;;;;;;;4985627;28;20182;-89
2024/03/10 08:31:00;;;;;;;2.27;1.70;;;;;;;;;;4974522;28;20187;-89
2024/03/10 08:34:04;;;;;;;2.57;1.90;;;;;;;;;;4975285;28;20182;-88
2024/03/10 08:37:08;;;;;;;2.00;1.30;;;;;;;;;;4986343;28;20182;-90
2024/03/10 08:40:14;;;;;;;1.73;1.60;;;;;;;;;;4974708;28;20186;-89
2024/03/10 08:43:18;;;;;;;2.07;1.40;;;;;;;;;;4997906;28;20225;-92
2024/03/10 09:01:13;;;;;;;2.50;1.27;;;;;;;;;;4976076;28;20664;-89
2024/03/10 09:04:19;;;;;;;2.10;1.10;;;;;;;;;;4985412;28;20187;-89
2024/03/10 09:07:28;;;;;;;2.17;1.10;;;;;;;;;;4974622;28;20182;-90
2024/03/10 09:10:32;;;;;;;1.57;1.27;;;;;;;;;;4996795;28;20183;-89
2024/03/10 09:13:37;;;;;;;1.43;1.17;;;;;;;;;;4974032;28;20218;-89
2024/03/10 09:16:43;;;;;;;1.90;1.27;;;;;;;;;;4997739;28;20178;-90
2024/03/10 09:19:47;;;;;;;1.20;1.07;;;;;;;;;;4974032;28;20186;-90
2024/03/10 09:22:51;;;;;;;1.50;1.10;;;;;;;;;;4985520;28;20225;-90
2024/03/10 09:25:57;;;;;;;2.97;1.20;;;;;;;;;;4974905;28;20210;-88
2024/03/10 09:29:02;;;;;;;1.70;1.20;;;;;;;;;;4975564;28;20178;-90
2024/03/10 09:32:06;;;;;;;4.13;1.20;;;;;;;;;;4975060;28;20218;-91
2024/03/10 09:35:10;;;;;;;1.10;1.00;;;;;;;;;;4986480;28;20186;-91
2024/03/10 09:38:15;;;;;;;1.20;1.10;;;;;;;;;;4975598;28;20552;-91
2024/03/10 09:41:21;;;;;;;2.23;1.13;;;;;;;;;;4987575;28;20182;-90
2024/03/10 09:44:26;;;;;;;1.60;1.30;;;;;;;;;;4986847;28;20182;-89
2024/03/10 09:47:36;;;;;;;1.13;0.90;;;;;;;;;;4998300;28;20179;-91
2024/03/10 09:50:49;;;;;;;1.63;1.10;;;;;;;;;;4976205;28;20186;-88
2024/03/10 09:53:53;;;;;;;2.53;1.00;;;;;;;;;;4976806;28;20190;-89
2024/03/10 09:56:59;;;;;;;1.37;1.20;;;;;;;;;;4987828;28;20182;-91
2024/03/10 10:00:13;;;;;;;2.37;1.00;;;;;;;;;;4987633;28;20182;-88
2024/03/10 10:03:19;;;;;;;1.27;0.93;;;;;;;;;;4997598;28;20210;-89
2024/03/10 10:06:26;;;;;;;1.50;1.23;;;;;;;;;;4987013;28;20214;-88
2024/03/10 10:09:31;;;;;;;5.07;1.60;;;;;;;;;;5009061;28;20174;-85
2024/03/10 10:12:35;;;;;;;1.47;1.17;;;;;;;;;;4986283;28;20217;-85
2024/03/10 10:15:40;;;;;;;3.80;1.57;;;;;;;;;;5002796;28;20182;-87
2024/03/10 10:18:45;;;;;;;2.07;1.03;;;;;;;;;;4995234;28;20182;-85
2024/03/10 10:21:50;;;;;;;2.00;1.40;;;;;;;;;;4982932;28;20214;-87
2024/03/10 10:25:03;;;;;;;1.30;1.20;;;;;;;;;;4996131;28;20182;-85
2024/03/10 10:28:12;;;;;;;2.27;1.53;;;;;;;;;;5008002;28;20623;-85
2024/03/10 10:31:18;;;;;;;1.30;1.10;;;;;;;;;;5006889;28;20179;-85
2024/03/10 10:34:23;;;;;;;4.50;1.37;;;;;;;;;;5006146;28;20528;-85
2024/03/10 10:37:34;;;;;;;1.53;1.13;;;;;;;;;;5006183;28;20187;-85
2024/03/10 10:40:47;;;;;;;1.40;1.10;;;;;;;;;;5007696;28;20186;-85
2024/03/10 10:43:53;;;;;;;1.70;1.07;;;;;;;;;;4994812;28;20182;-86
2024/03/10 10:46:59;;;;;;;2.10;1.60;;;;;;;;;;4994314;28;20214;-86
2024/03/10 10:50:14;;;;;;;1.70;1.10;;;;;;;;;;5005440;28;20178;-86
2024/03/10 10:53:18;;;;;;;2.23;1.20;;;;;;;;;;5006407;28;20222;-85
2024/03/10 10:56:22;;;;;;;3.13;1.20;;;;;;;;;;5004331;28;20179;-87
2024/03/10 10:59:27;;;;;;;2.30;1.40;;;;;;;;;;5003311;28;20521;-86
2024/03/10 11:02:41;;;;;;;2.40;1.73;;;;;;;;;;4991859;28;20214;-85
2024/03/10 11:06:06;;;;;;;3.37;1.63;;;;;;;;;;5015191;28;20206;-85
2024/03/10 11:09:14;;;;;;;2.40;1.30;;;;;;;;;;5007370;28;20182;-86
2024/03/10 11:12:22;;;;;;;1.57;1.10;;;;;;;;;;5011316;28;20213;-86
2024/03/10 11:15:26;;;;;;;3.97;1.30;;;;;;;;;;4999042;28;20174;-86
2024/03/10 11:18:32;;;;;;;2.33;1.17;;;;;;;;;;5022596;28;20185;-86
2024/03/10 11:21:36;;;;;;;1.00;0.90;;;;;;;;;;5011063;28;20186;-86
2024/03/10 11:24:41;;;;;;;1.67;1.10;;;;;;;;;;5000129;28;20182;-86
2024/03/10 11:27:46;;;;;;;2.33;1.23;;;;;;;;;;5009057;28;20174;-86
2024/03/10 11:30:56;;;;;;;2.20;1.40;;;;;;;;;;5008300;28;20178;-86
2024/03/10 11:34:03;;;;;;;1.73;1.13;;;;;;;;;;4996260;28;20182;-86
2024/03/10 11:37:16;;;;;;;1.97;1.23;;;;;;;;;;4995345;28;20182;-85
2024/03/10 11:40:21;;;;;;;4.83;1.00;;;;;;;;;;5018461;28;20182;-86
2024/03/10 11:43:26;;;;;;;1.10;0.93;;;;;;;;;;4996294;28;20213;-86
2024/03/10 11:46:33;;;;;;;1.93;1.40;;;;;;;;;;5006782;28;20210;-85
2024/03/10 11:49:37;;;;;;;1.40;1.10;;;;;;;;;;5017540;28;20524;-87
2024/03/10 11:52:41;;;;;;;1.80;1.20;;;;;;;;;;5006078;28;20217;-85
2024/03/10 11:55:55;;;;;;;1.73;1.10;;;;;;;;;;5017174;28;20197;-86
2024/03/10 11:59:00;;;;;;;2.03;1.20;;;;;;;;;;5004840;28;20183;-87
2024/03/10 12:02:04;;;;;;;1.33;1.03;;;;;;;;;;5005295;28;20555;-87
2024/03/10 12:05:11;;;;;;;1.87;1.40;;;;;;;;;;5017143;28;20528;-85
2024/03/10 12:08:17;;;;;;;1.93;1.00;;;;;;;;;;5015590;28;20214;-85
2024/03/10 12:11:24;;;;;;;1.80;1.40;;;;;;;;;;4982568;28;20647;-84
2024/03/10 12:14:28;;;;;;;1.80;1.30;;;;;;;;;;5005054;28;20182;-85
2024/03/10 12:17:33;;;;;;;2.33;1.70;;;;;;;;;;5015740;28;20175;-85
2024/03/10 12:20:37;;;;;;;2.60;1.60;;;;;;;;;;5003001;28;20182;-85
2024/03/10 12:23:42;;;;;;;2.20;1.50;;;;;;;;;;5002196;28;20217;-85
2024/03/10 12:26:46;;;;;;;2.70;1.47;;;;;;;;;;4990683;28;20222;-85
2024/03/10 12:29:50;;;;;;;1.53;1.03;;;;;;;;;;4989441;28;20182;-84
2024/03/10 12:32:55;;;;;;;1.80;1.10;;;;;;;;;;4999637;28;20217;-84
2024/03/10 12:35:59;;;;;;;2.60;1.23;;;;;;;;;;4989000;28;20516;-84
2024/03/10 12:39:11;;;;;;;1.73;1.20;;;;;;;;;;5000070;28;20182;-84
2024/03/10 12:42:15;;;;;;;1.60;1.00;;;;;;;;;;4999230;28;20690;-84
2024/03/10 12:45:20;;;;;;;1.47;1.10;;;;;;;;;;4999523;28;20186;-86
2024/03/10 12:48:27;;;;;;;4.47;1.13;;;;;;;;;;5009153;28;20186;-85
2024/03/10 12:51:32;;;;;;;1.17;1.00;;;;;;;;;;4998675;28;20198;-84
2024/03/10 12:54:36;;;;;;;1.60;1.10;;;;;;;;;;4987172;28;20205;-85
2024/03/10 12:57:41;;;;;;;3.30;1.20;;;;;;;;;;4997782;28;20532;-83
2024/03/10 13:00:47;;;;;;;1.47;1.30;;;;;;;;;;4998943;28;20182;-85
2024/03/10 13:03:51;;;;;;;4.13;2.83;;;;;;;;;;4998109;28;20183;-85
2024/03/10 13:06:55;;;;;;;1.80;1.33;;;;;;;;;;4998305;28;20205;-86
2024/03/10 13:09:59;;;;;;;3.20;1.50;;;;;;;;;;5001885;28;20532;-87
2024/03/10 13:13:07;;;;;;;2.17;1.20;;;;;;;;;;5010414;28;20218;-87
2024/03/10 13:16:11;;;;;;;2.07;1.20;;;;;;;;;;4998273;28;20178;-87
2024/03/10 13:19:16;;;;;;;1.50;1.10;;;;;;;;;;4997999;28;20655;-88
2024/03/10 13:22:21;;;;;;;1.80;1.17;;;;;;;;;;4997491;28;20226;-86
2024/03/10 13:25:27;;;;;;;1.60;1.17;;;;;;;;;;4997731;28;20174;-87
2024/03/10 13:28:31;;;;;;;1.47;1.13;;;;;;;;;;5008375;28;20187;-86
2024/03/10 13:31:35;;;;;;;1.50;1.10;;;;;;;;;;4984570;28;20183;-87
2024/03/10 13:34:41;;;;;;;2.70;1.70;;;;;;;;;;5008470;28;20216;-87
2024/03/10 13:37:46;;;;;;;2.33;1.50;;;;;;;;;;4998239;28;20178;-87
2024/03/10 13:40:50;;;;;;;3.47;1.50;;;;;;;;;;4997643;28;20183;-87
2024/03/10 13:43:55;;;;;;;2.33;1.60;;;;;;;;;;5008229;28;20182;-87
2024/03/10 13:47:00;;;;;;;2.97;1.70;;;;;;;;;;4996817;28;20707;-86
2024/03/10 13:50:09;;;;;;;4.37;1.33;;;;;;;;;;4996496;28;20182;-86
2024/03/10 13:53:13;;;;;;;4.83;2.03;;;;;;;;;;4997261;28;20222;-87
2024/03/10 13:56:18;;;;;;;1.77;1.23;;;;;;;;;;4984960;28;20202;-86
2024/03/10 13:59:23;;;;;;;1.73;1.40;;;;;;;;;;4985562;28;20639;-87
2024/03/10 14:02:27;;;;;;;3.00;1.60;;;;;;;;;;5008410;28;20563;-86
2024/03/10 14:05:31;;;;;;;1.67;1.20;;;;;;;;;;4996366;28;20524;-87
2024/03/10 14:08:35;;;;;;;2.30;1.17;;;;;;;;;;4996345;28;20182;-86
2024/03/10 14:11:39;;;;;;;3.93;1.40;;;;;;;;;;4996179;28;20210;-87
2024/03/10 14:14:45;;;;;;;3.23;1.40;;;;;;;;;;5007350;28;20182;-86
2024/03/10 14:17:51;;;;;;;1.30;1.00;;;;;;;;;;4996354;28;20178;-86
2024/03/10 14:20:56;;;;;;;1.80;1.30;;;;;;;;;;5007231;28;20178;-86
2024/03/10 14:24:00;;;;;;;1.87;1.30;;;;;;;;;;4999154;28;20175;-84
2024/03/10 14:27:08;;;;;;;1.40;1.10;;;;;;;;;;4975709;28;20214;-88
2024/03/10 14:30:13;;;;;;;1.37;1.20;;;;;;;;;;5004900;28;20178;-84
2024/03/10 14:33:18;;;;;;;2.07;1.20;;;;;;;;;;4987175;28;20218;-85
2024/03/10 14:36:24;;;;;;;2.67;1.60;;;;;;;;;;5011257;28;20178;-85
2024/03/10 14:39:29;;;;;;;1.70;1.03;;;;;;;;;;5009604;28;20179;-85
2024/03/10 14:42:34;;;;;;;4.03;1.40;;;;;;;;;;5005849;28;20218;-85
2024/03/10 14:45:38;;;;;;;1.27;1.10;;;;;;;;;;5017262;28;20178;-85
2024/03/10 14:48:43;;;;;;;1.70;1.40;;;;;;;;;;5017211;28;20643;-85
2024/03/10 14:51:49;;;;;;;5.80;1.27;;;;;;;;;;5006413;28;20559;-85
2024/03/10 14:54:54;;;;;;;2.00;1.40;;;;;;;;;;5019905;28;20201;-85
2024/03/10 14:58:04;;;;;;;2.37;1.20;;;;;;;;;;5009282;28;20170;-85
2024/03/10 15:01:08;;;;;;;1.40;1.10;;;;;;;;;;5019125;28;20178;-85
2024/03/10 15:04:12;;;;;;;1.60;1.40;;;;;;;;;;5018632;28;20190;-84
2024/03/10 15:07:19;;;;;;;1.27;1.13;;;;;;;;;;5007928;28;20202;-84
2024/03/10 15:10:24;;;;;;;2.43;1.37;;;;;;;;;;5019646;28;20178;-84
2024/03/10 15:13:29;;;;;;;2.50;1.57;;;;;;;;;;5018843;28;20222;-84
2024/03/10 15:16:35;;;;;;;2.00;1.57;;;;;;;;;;5021577;28;20173;-83
2024/03/10 15:19:39;;;;;;;2.73;1.77;;;;;;;;;;5019937;28;20186;-84
2024/03/10 15:22:43;;;;;;;5.70;2.23;;;;;;;;;;5010231;28;20218;-86
2024/03/10 15:25:49;;;;;;;2.07;1.30;;;;;;;;;;4998816;28;20186;-85
2024/03/10 15:28:54;;;;;;;2.30;1.60;;;;;;;;;;5011438;28;20150;-87
2024/03/10 15:31:58;;;;;;;2.13;1.30;;;;;;;;;;4999346;28;20213;-85
2024/03/10 15:35:02;;;;;;;3.37;1.70;;;;;;;;;;5009732;28;20174;-85
2024/03/10 15:38:08;;;;;;;2.07;1.60;;;;;;;;;;5024409;28;20159;-85
2024/03/10 15:41:13;;;;;;;3.50;1.40;;;;;;;;;;5013737;28;20174;-86
2024/03/10 15:44:24;;;;;;;2.63;1.90;;;;;;;;;;5014219;28;20178;-85
2024/03/10 15:47:28;;;;;;;2.17;1.70;;;;;;;;;;5024830;28;20202;-86
2024/03/10 15:50:32;;;;;;;2.13;1.80;;;;;;;;;;5001451;28;20173;-85
2024/03/10 15:53:36;;;;;;;3.50;2.30;;;;;;;;;;5013443;28;20198;-85
2024/03/10 15:56:41;;;;;;;3.77;1.97;;;;;;;;;;5017252;28;20190;-84
2024/03/10 15:59:45;;;;;;;2.33;1.53;;;;;;;;;;5027655;28;20190;-86
2024/03/10 16:02:59;;;;;;;4.40;1.87;;;;;;;;;;5014786;28;20213;-85
2024/03/10 16:06:04;;;;;;;2.97;2.00;;;;;;;;;;4999376;28;20178;-85
2024/03/10 16:09:10;;;;;;;4.73;2.53;;;;;;;;;;5015135;28;20182;-84
2024/03/10 16:12:15;;;;;;;4.63;2.23;;;;;;;;;;5024271;28;20564;-86
2024/03/10 16:15:27;;;;;;;2.20;2.00;;;;;;;;;;5013520;28;20178;-85
2024/03/10 16:18:36;;;;;;;2.00;1.43;;;;;;;;;;5002825;28;20179;-86
2024/03/10 16:21:43;;;;;;;2.13;1.30;;;;;;;;;;5023826;28;20214;-86
2024/03/10 16:24:47;;;;;;;1.83;1.27;;;;;;;;;;5001908;28;20223;-86
2024/03/10 16:27:52;;;;;;;2.90;1.43;;;;;;;;;;5013921;28;20202;-85
2024/03/10 16:30:56;;;;;;;4.70;1.60;;;;;;;;;;5025328;28;20183;-84
2024/03/10 16:34:00;;;;;;;1.47;1.10;;;;;;;;;;5014101;28;20183;-85
2024/03/10 16:37:05;;;;;;;2.53;1.50;;;;;;;;;;5013758;28;20162;-85
2024/03/10 16:40:12;;;;;;;2.47;1.47;;;;;;;;;;5014328;28;20174;-85
2024/03/10 16:43:16;;;;;;;1.40;1.20;;;;;;;;;;5017154;28;20240;-85
2024/03/10 16:46:23;;;;;;;1.30;1.20;;;;;;;;;;5004603;28;20182;-85
2024/03/10 16:49:27;;;;;;;2.13;1.10;;;;;;;;;;5014024;28;20178;-85
2024/03/10 16:52:31;;;;;;;20.80;12.13;;;;;;;;;;5015035;28;20217;-84
2024/03/10 16:55:38;;;;;;;2.73;2.10;;;;;;;;;;5001260;28;20212;-85
2024/03/10 16:58:44;;;;;;;5.00;3.83;;;;;;;;;;5025318;28;20210;-85
2024/03/10 17:01:48;;;;;;;7.27;4.10;;;;;;;;;;5014978;28;20213;-84
2024/03/10 17:04:53;;;;;;;3.20;2.87;;;;;;;;;;5002087;28;20174;-86
2024/03/10 17:08:00;;;;;;;2.03;1.80;;;;;;;;;;5013678;28;20178;-86
2024/03/10 17:11:04;;;;;;;2.80;2.27;;;;;;;;;;5014831;28;20178;-84
2024/03/10 17:14:10;;;;;;;3.20;2.50;;;;;;;;;;5005771;28;20182;-85
2024/03/10 17:17:15;;;;;;;2.40;2.20;;;;;;;;;;5026817;28;20206;-85
2024/03/10 17:20:20;;;;;;;4.60;2.50;;;;;;;;;;5024859;28;20178;-86
2024/03/10 17:23:24;;;;;;;3.27;2.73;;;;;;;;;;4999375;28;20218;-85
2024/03/10 17:26:28;;;;;;;3.50;3.03;;;;;;;;;;5001251;28;20581;-83
2024/03/10 17:29:32;;;;;;;3.80;3.27;;;;;;;;;;4999557;28;20524;-84
2024/03/10 17:32:37;;;;;;;3.50;2.80;;;;;;;;;;4988747;28;20221;-84
2024/03/10 17:35:41;;;;;;;3.57;2.70;;;;;;;;;;5010031;28;20183;-83
2024/03/10 17:38:45;;;;;;;4.20;2.70;;;;;;;;;;4998624;28;20210;-85
2024/03/10 17:41:50;;;;;;;3.33;2.40;;;;;;;;;;4999644;28;20210;-83
2024/03/10 17:44:54;;;;;;;3.90;2.70;;;;;;;;;;4998497;28;20182;-83
2024/03/10 17:47:59;;;;;;;3.90;3.07;;;;;;;;;;4998227;28;20178;-83
2024/03/10 17:51:05;;;;;;;5.00;3.90;;;;;;;;;;5009293;28;20186;-83
2024/03/10 17:54:09;;;;;;;6.57;4.50;;;;;;;;;;4987317;28;20183;-83
2024/03/10 17:57:14;;;;;;;5.40;4.03;;;;;;;;;;4987392;28;20210;-84
2024/03/10 18:00:22;;;;;;;4.63;3.30;;;;;;;;;;5009644;28;20182;-83
2024/03/10 18:03:27;;;;;;;6.40;4.20;;;;;;;;;;4998325;28;20217;-83
2024/03/10 18:06:31;;;;;;;4.60;3.93;;;;;;;;;;4998379;28;20186;-85
2024/03/10 18:09:35;;;;;;;5.80;4.07;;;;;;;;;;5000215;28;20179;-84
2024/03/10 18:12:41;;;;;;;7.90;5.17;;;;;;;;;;5000716;28;20217;-84
2024/03/10 18:15:47;;;;;;;5.47;4.30;;;;;;;;;;5000472;28;20182;-84
2024/03/10 18:18:53;;;;;;;4.30;3.77;;;;;;;;;;4998130;28;20210;-83
2024/03/10 18:21:59;;;;;;;6.77;4.97;;;;;;;;;;4998915;28;20217;-83
2024/03/10 18:25:04;;;;;;;6.37;4.57;;;;;;;;;;4999173;28;20186;-83
2024/03/10 18:28:08;;;;;;;7.10;4.87;;;;;;;;;;5010348;28;20182;-84
2024/03/10 18:31:15;;;;;;;6.43;4.47;;;;;;;;;;5000120;28;20183;-83
2024/03/10 18:34:19;;;;;;;9.37;5.90;;;;;;;;;;5011428;28;20183;-83
2024/03/10 18:37:23;;;;;;;7.10;5.23;;;;;;;;;;4998560;28;20217;-84
2024/03/10 18:40:29;;;;;;;5.93;4.87;;;;;;;;;;4999030;28;20186;-83
2024/03/10 18:43:34;;;;;;;5.10;4.33;;;;;;;;;;4999199;28;20536;-82
2024/03/10 18:46:39;;;;;;;5.70;4.30;;;;;;;;;;4999844;28;20186;-83
2024/03/10 18:49:43;;;;;;;6.07;3.67;;;;;;;;;;4988870;28;20521;-82
2024/03/10 18:52:49;;;;;;;5.53;3.30;;;;;;;;;;5000314;28;20221;-83
2024/03/10 18:55:55;;;;;;;6.20;2.70;;;;;;;;;;5010772;28;20563;-83
2024/03/10 18:59:01;;;;;;;3.27;2.70;;;;;;;;;;5000489;28;20214;-85
2024/03/10 19:02:05;;;;;;;4.00;3.03;;;;;;;;;;5010867;28;20213;-84
2024/03/10 19:05:11;;;;;;;4.57;3.00;;;;;;;;;;5000966;28;20186;-83